Providence, Rhode Island
Traffic Map
Current Weather Conditions
Providence, Rhode Island
Clear
Clear
34°
Feels Like: 28°
Wind Chill: 28° Ceiling: Unl
Heat Index: 34° Visibility: 10mi
Dew Point: 14° Wind: 7mph
Humidity: 44% Direction: 300° (WNW)
Pressure: 30.13in Gusts: 0mph
Raw Report DataKPVD 270051Z 30006KT 10SM CLR 01/M10 A3013 RMK AO2 SLP202 T00111100 $
Traffic Incident Summary
Active as of:
Severity:
Category:
InformationThere was an issue retrieving the traffic information for this location. Please try a different location or try again shortly.
Advertisements
Track Severe Weather on mobile